Time;durP1;ratioP1;P1;durP2;ratioP2;P2;SDS_P1;SDS_P2;PMS_P1;PMS_P2;Temp;Humidity;BMP_temperature;BMP_pressure;BME280_temperature;BME280_humidity;BME280_pressure;Samples;Min_cycle;Max_cycle;Signal;HPM_P1;HPM_P2
2022/03/11 00:01:48;;;;;;;15.82;9.00;;;;;;;8.86;41.22;101740.81;5072019;28;20055;-47
2022/03/11 00:04:35;;;;;;;14.38;8.52;;;;;;;8.87;41.74;101740.56;5061853;28;20061;-45
2022/03/11 00:07:18;;;;;;;13.68;8.70;;;;;;;8.86;40.91;101735.38;5072906;28;20044;-46
2022/03/11 00:09:45;;;;;;;14.02;9.10;;;;;;;8.80;41.18;101737.13;5053681;28;20127;-45
2022/03/11 00:12:13;;;;;;;14.43;8.80;;;;;;;8.78;42.02;101730.28;5054081;28;20049;-46
2022/03/11 00:14:41;;;;;;;17.52;9.02;;;;;;;8.79;41.91;101730.03;5052532;28;20059;-44
2022/03/11 00:17:08;;;;;;;14.10;9.10;;;;;;;8.77;41.18;101728.63;5052427;28;20056;-48
2022/03/11 00:19:36;;;;;;;15.30;9.13;;;;;;;8.71;41.43;101727.69;5035371;28;20083;-45
2022/03/11 00:22:04;;;;;;;13.43;9.20;;;;;;;8.69;41.88;101724.38;5018327;28;20053;-47
2022/03/11 00:24:34;;;;;;;14.20;9.32;;;;;;;8.70;41.95;101720.56;5053568;28;20041;-43
2022/03/11 00:27:02;;;;;;;14.73;9.52;;;;;;;8.68;41.57;101722.69;5052480;28;20107;-48
2022/03/11 00:29:32;;;;;;;15.68;8.80;;;;;;;8.67;42.12;101718.34;5035917;28;20069;-44
2022/03/11 00:31:59;;;;;;;16.15;9.23;;;;;;;8.65;42.25;101715.84;5018230;28;20047;-46
2022/03/11 00:34:28;;;;;;;15.93;9.68;;;;;;;8.65;41.73;101717.72;5053325;28;20049;-49
2022/03/11 00:36:55;;;;;;;13.80;9.07;;;;;;;8.66;41.74;101719.38;5052358;28;20037;-46
2022/03/11 00:39:23;;;;;;;13.35;8.88;;;;;;;8.64;41.41;101716.91;5042231;28;20048;-47
2022/03/11 00:41:51;;;;;;;14.10;8.70;;;;;;;8.63;41.46;101714.41;5076235;28;20090;-44
2022/03/11 00:44:20;;;;;;;12.15;8.70;;;;;;;8.57;41.71;101712.66;5072114;28;20041;-46
2022/03/11 00:46:47;;;;;;;13.05;8.57;;;;;;;8.55;41.89;101712.03;5055883;28;20454;-43
2022/03/11 00:49:15;;;;;;;16.30;9.35;;;;;;;8.51;41.95;101712.53;5057144;28;20095;-45
2022/03/11 00:51:43;;;;;;;13.32;8.77;;;;;;;8.52;42.16;101711.44;5037906;28;20044;-46
2022/03/11 00:54:11;;;;;;;15.52;9.45;;;;;;;8.50;42.24;101710.84;5038447;28;20136;-47
2022/03/11 00:56:39;;;;;;;14.13;8.70;;;;;;;8.46;41.87;101715.06;5056967;28;20072;-45
2022/03/11 00:59:06;;;;;;;14.15;8.98;;;;;;;8.44;41.98;101710.94;5063557;28;20037;-44
2022/03/11 01:01:34;;;;;;;15.43;9.23;;;;;;;8.46;42.16;101712.38;5055693;28;20060;-48
2022/03/11 01:04:02;;;;;;;12.73;8.90;;;;;;;8.47;41.80;101705.88;5055447;28;20052;-45
2022/03/11 01:06:30;;;;;;;14.70;9.30;;;;;;;8.47;42.28;101703.19;5068284;28;20040;-46
2022/03/11 01:08:57;;;;;;;14.13;9.32;;;;;;;8.47;41.77;101695.03;5074432;28;20048;-47
2022/03/11 01:11:25;;;;;;;16.77;9.38;;;;;;;8.49;42.31;101697.50;5051897;28;20487;-47
2022/03/11 01:13:54;;;;;;;16.63;9.65;;;;;;;8.48;42.23;101696.66;5055704;28;20399;-47
2022/03/11 01:16:23;;;;;;;15.55;9.50;;;;;;;8.46;41.62;101687.91;5056175;28;20053;-46
2022/03/11 01:18:51;;;;;;;14.55;9.27;;;;;;;8.45;41.65;101680.03;5059958;28;20041;-47
2022/03/11 01:21:18;;;;;;;12.80;9.48;;;;;;;8.41;41.65;101679.66;5075264;28;20036;-46
2022/03/11 01:23:46;;;;;;;17.60;9.43;;;;;;;8.36;42.15;101681.38;5075284;28;20037;-47
2022/03/11 01:26:14;;;;;;;15.75;10.15;;;;;;;8.31;42.02;101676.66;5062347;28;20041;-46
2022/03/11 01:28:42;;;;;;;13.52;9.10;;;;;;;8.26;42.39;101671.09;5055117;28;20123;-46
2022/03/11 01:31:11;;;;;;;15.43;9.93;;;;;;;8.26;42.51;101671.09;5054846;28;20037;-47
2022/03/11 01:33:40;;;;;;;13.45;8.77;;;;;;;8.26;41.75;101668.38;5054915;28;20388;-46
2022/03/11 01:36:09;;;;;;;13.55;9.48;;;;;;;8.24;41.67;101659.63;5058203;28;20044;-46
2022/03/11 01:38:37;;;;;;;14.88;9.38;;;;;;;8.27;42.59;101661.88;5044833;28;20033;-48
2022/03/11 01:41:05;;;;;;;15.18;9.70;;;;;;;8.28;42.03;101658.09;5078276;28;20067;-49
2022/03/11 01:43:53;;;;;;;13.23;8.90;;;;;;;8.28;42.01;101653.50;5075145;28;20047;-44
2022/03/11 01:46:21;;;;;;;20.58;9.63;;;;;;;8.31;41.67;101649.50;5043854;28;20044;-45
2022/03/11 01:48:49;;;;;;;14.68;8.75;;;;;;;8.33;41.67;101650.09;5072844;28;20036;-46
2022/03/11 01:51:18;;;;;;;14.48;9.85;;;;;;;8.29;41.84;101643.47;5075083;28;20036;-45
2022/03/11 01:53:46;;;;;;;15.82;9.25;;;;;;;8.18;41.55;101646.97;5036257;28;20518;-45
2022/03/11 01:56:14;;;;;;;12.40;8.90;;;;;;;8.08;42.32;101632.09;5054659;28;20037;-46
2022/03/11 01:58:42;;;;;;;15.93;9.80;;;;;;;8.07;42.80;101627.69;5062334;28;20098;-45
2022/03/11 02:01:09;;;;;;;14.77;9.43;;;;;;;8.04;42.40;101632.78;5074653;28;20051;-45
2022/03/11 02:03:37;;;;;;;14.32;9.77;;;;;;;8.01;42.36;101620.50;5059849;28;20060;-47
2022/03/11 02:06:08;;;;;;;15.68;9.55;;;;;;;8.00;42.38;101618.00;5054174;28;20053;-41
2022/03/11 02:08:37;;;;;;;14.82;9.18;;;;;;;7.99;43.07;101619.09;5056750;28;20049;-45
2022/03/11 02:11:05;;;;;;;14.95;10.02;;;;;;;7.93;43.02;101611.84;5054497;28;20049;-47
2022/03/11 02:13:48;;;;;;;14.68;9.40;;;;;;;7.88;43.51;101607.13;5045582;28;20125;-46
2022/03/11 02:16:21;;;;;;;14.20;9.60;;;;;;;7.85;43.43;101605.69;5073927;28;20046;-43
2022/03/11 02:18:49;;;;;;;17.00;8.80;;;;;;;7.80;42.86;101602.03;5062832;28;20033;-43
2022/03/11 02:21:18;;;;;;;13.65;9.63;;;;;;;7.80;43.84;101596.59;5019958;28;20496;-45
2022/03/11 02:23:47;;;;;;;13.73;9.55;;;;;;;7.72;43.97;101603.19;5037750;28;20037;-50
2022/03/11 02:26:20;;;;;;;14.85;10.27;;;;;;;7.67;43.54;101593.00;5054366;28;20041;-48
2022/03/11 02:28:50;;;;;;;13.52;9.48;;;;;;;7.64;44.02;101593.44;5055202;28;20060;-46
2022/03/11 02:31:19;;;;;;;14.70;9.80;;;;;;;7.61;44.15;101591.22;5036230;28;20466;-44
2022/03/11 02:33:47;;;;;;;13.68;9.50;;;;;;;7.56;43.74;101585.66;5053424;28;20044;-47
2022/03/11 02:36:15;;;;;;;16.77;10.02;;;;;;;7.57;44.51;101581.88;5073644;28;20045;-45
2022/03/11 02:38:42;;;;;;;13.93;9.70;;;;;;;7.58;44.51;101580.00;5035653;28;20040;-47
2022/03/11 02:41:10;;;;;;;14.52;10.05;;;;;;;7.55;44.34;101577.72;5036343;28;20076;-46
2022/03/11 02:43:38;;;;;;;14.73;9.63;;;;;;;7.55;44.22;101580.44;5054014;28;20044;-45
2022/03/11 02:46:06;;;;;;;14.98;9.63;;;;;;;7.52;43.94;101573.59;5053406;28;20045;-44
2022/03/11 02:48:35;;;;;;;14.40;9.68;;;;;;;7.46;44.59;101577.25;5053496;28;20060;-46
2022/03/11 02:51:03;;;;;;;15.55;10.20;;;;;;;7.40;44.47;101583.56;5036155;28;20040;-46
2022/03/11 02:53:31;;;;;;;13.85;9.73;;;;;;;7.37;44.41;101578.59;5031157;28;20049;-46
2022/03/11 02:55:59;;;;;;;13.63;9.43;;;;;;;7.37;44.52;101571.28;5073410;28;20041;-43
2022/03/11 02:58:27;;;;;;;15.35;10.13;;;;;;;7.34;44.75;101569.03;5060799;28;20045;-45
2022/03/11 03:00:55;;;;;;;14.35;9.60;;;;;;;7.29;44.54;101568.06;5055581;28;20040;-45
2022/03/11 03:03:22;;;;;;;13.93;9.98;;;;;;;7.32;44.82;101568.44;5053724;28;20449;-47
2022/03/11 03:05:50;;;;;;;15.88;9.75;;;;;;;7.30;45.21;101569.72;5053481;28;20067;-45
2022/03/11 03:08:18;;;;;;;14.80;9.93;;;;;;;7.28;44.99;101569.94;5036482;28;20120;-46
2022/03/11 03:10:45;;;;;;;15.13;9.60;;;;;;;7.28;45.06;101566.41;5053417;28;20056;-46
2022/03/11 03:13:13;;;;;;;14.13;9.15;;;;;;;7.24;44.68;101572.28;5061773;28;20040;-47
2022/03/11 03:15:41;;;;;;;14.48;9.38;;;;;;;7.24;44.69;101566.88;5072357;28;20094;-45
2022/03/11 03:18:09;;;;;;;14.52;9.57;;;;;;;7.23;44.83;101565.19;5060949;28;20047;-47
2022/03/11 03:20:37;;;;;;;14.85;9.65;;;;;;;7.24;44.97;101564.16;5035288;28;20037;-45
2022/03/11 03:23:05;;;;;;;15.13;9.73;;;;;;;7.22;44.34;101563.56;5062518;28;20041;-44
2022/03/11 03:25:32;;;;;;;12.95;9.65;;;;;;;7.20;44.91;101565.66;5073012;28;20040;-48
2022/03/11 03:28:00;;;;;;;15.65;9.32;;;;;;;7.20;45.26;101554.81;5067292;28;20040;-46
2022/03/11 03:30:28;;;;;;;14.93;9.80;;;;;;;7.20;45.06;101560.25;5052879;28;20079;-46
2022/03/11 03:32:55;;;;;;;14.32;8.98;;;;;;;7.18;45.18;101556.09;5053310;28;20047;-46
2022/03/11 03:35:23;;;;;;;13.20;9.10;;;;;;;7.19;44.53;101553.19;5052971;28;20381;-45
2022/03/11 03:37:50;;;;;;;16.15;8.68;;;;;;;7.25;45.08;101549.53;5064238;28;20449;-46
2022/03/11 03:40:19;;;;;;;13.30;9.50;;;;;;;7.28;44.31;101553.69;5054997;28;20068;-48
2022/03/11 03:42:47;;;;;;;14.38;8.98;;;;;;;7.21;44.44;101551.03;5061961;28;20059;-47
2022/03/11 03:45:15;;;;;;;15.48;9.57;;;;;;;7.06;44.73;101558.75;5035063;28;20047;-45
2022/03/11 03:47:43;;;;;;;14.02;9.57;;;;;;;7.04;44.78;101556.25;5053950;28;20051;-47
2022/03/11 03:50:11;;;;;;;12.63;8.25;;;;;;;7.07;44.90;101549.59;5052603;28;20053;-47
2022/03/11 03:52:39;;;;;;;12.57;8.90;;;;;;;7.11;45.00;101547.22;5035543;28;20128;-44
2022/03/11 03:55:07;;;;;;;14.85;9.18;;;;;;;7.16;44.90;101542.78;5052610;28;20045;-47
2022/03/11 03:57:35;;;;;;;12.80;8.57;;;;;;;7.20;44.64;101546.69;5053914;28;20056;-46
2022/03/11 04:00:04;;;;;;;14.15;8.88;;;;;;;7.20;44.52;101541.28;5052787;28;20049;-43
2022/03/11 04:02:49;;;;;;;13.70;8.88;;;;;;;7.17;44.92;101546.34;5064094;28;20479;-44
2022/03/11 04:05:18;;;;;;;12.63;8.52;;;;;;;7.11;44.34;101539.91;5055115;28;20126;-42
2022/03/11 04:07:48;;;;;;;14.35;8.85;;;;;;;7.10;44.21;101538.28;5072192;28;20048;-42
2022/03/11 04:10:18;;;;;;;14.48;8.82;;;;;;;7.06;44.50;101547.09;5052735;28;20368;-42
2022/03/11 04:12:46;;;;;;;12.88;8.02;;;;;;;7.03;45.00;101543.78;5062261;28;20044;-42
2022/03/11 04:15:14;;;;;;;12.02;7.88;;;;;;;7.07;44.44;101538.75;5054633;28;20053;-44
2022/03/11 04:17:41;;;;;;;12.25;8.48;;;;;;;7.00;44.86;101538.00;5056342;28;20041;-42
2022/03/11 04:20:10;;;;;;;13.65;9.13;;;;;;;6.95;45.05;101535.09;5070006;28;20043;-40
2022/03/11 04:22:44;;;;;;;13.93;8.30;;;;;;;7.00;45.08;101540.69;5073689;28;20033;-43
2022/03/11 04:25:13;;;;;;;16.80;8.77;;;;;;;7.00;44.91;101538.81;5056479;28;20484;-43
2022/03/11 04:27:41;;;;;;;15.88;8.63;;;;;;;7.00;44.69;101533.41;5056492;28;20052;-40
2022/03/11 04:30:09;;;;;;;13.52;8.57;;;;;;;7.04;45.01;101533.75;5057640;28;20140;-43
2022/03/11 04:32:37;;;;;;;12.77;8.50;;;;;;;7.05;44.70;101530.00;5038642;28;20035;-47
2022/03/11 04:35:07;;;;;;;14.60;7.93;;;;;;;7.04;45.06;101533.75;5036796;28;20068;-46
2022/03/11 04:37:35;;;;;;;13.73;8.07;;;;;;;7.06;44.95;101526.22;5055974;28;20041;-45
2022/03/11 04:40:04;;;;;;;13.13;8.63;;;;;;;7.05;44.47;101532.72;5055806;28;20048;-46
2022/03/11 04:42:32;;;;;;;12.90;8.18;;;;;;;7.01;44.57;101524.19;5022998;28;20041;-48
2022/03/11 04:44:59;;;;;;;12.50;7.78;;;;;;;6.90;45.08;101529.53;5056242;28;20037;-45
2022/03/11 04:47:27;;;;;;;14.45;8.27;;;;;;;6.89;45.57;101525.19;5075618;28;20104;-42
2022/03/11 04:49:58;;;;;;;15.10;8.90;;;;;;;6.88;45.22;101528.94;5064890;28;20041;-46
2022/03/11 04:52:25;;;;;;;15.45;8.02;;;;;;;6.85;45.44;101530.22;5037987;28;20396;-46
2022/03/11 04:54:53;;;;;;;12.85;7.85;;;;;;;6.90;45.63;101522.22;5075583;28;20040;-47
2022/03/11 04:57:21;;;;;;;13.50;8.77;;;;;;;6.89;45.42;101528.72;5075642;28;20483;-49
2022/03/11 04:59:48;;;;;;;13.35;8.43;;;;;;;6.91;45.71;101532.03;5074115;28;20038;-46
2022/03/11 05:02:27;;;;;;;11.95;8.32;;;;;;;6.95;45.70;101525.13;5072312;28;20059;-48
2022/03/11 05:04:55;;;;;;;12.40;8.07;;;;;;;6.99;45.58;101530.91;5037905;28;20052;-47
2022/03/11 05:07:22;;;;;;;13.63;7.80;;;;;;;7.00;45.71;101527.97;5055615;28;20098;-46
2022/03/11 05:09:50;;;;;;;14.07;7.65;;;;;;;7.04;45.33;101525.63;5055523;28;20492;-44
2022/03/11 05:12:18;;;;;;;13.68;8.63;;;;;;;7.04;45.88;101522.91;5055762;28;20037;-47
2022/03/11 05:14:45;;;;;;;12.15;8.00;;;;;;;7.03;45.78;101523.97;5072553;28;20037;-49
2022/03/11 05:17:13;;;;;;;12.52;8.00;;;;;;;6.98;45.96;101518.41;5053543;28;20415;-44
2022/03/11 05:19:41;;;;;;;12.40;8.13;;;;;;;6.95;45.75;101521.56;5056512;28;20488;-45
2022/03/11 05:22:08;;;;;;;13.15;7.80;;;;;;;6.93;46.09;101518.28;5037751;28;20127;-45
2022/03/11 05:24:36;;;;;;;13.88;7.88;;;;;;;6.91;45.94;101517.66;5069581;28;20036;-43
2022/03/11 05:27:05;;;;;;;12.95;8.18;;;;;;;6.91;46.26;101517.66;5056922;28;20440;-43
2022/03/11 05:29:34;;;;;;;12.00;8.57;;;;;;;6.88;46.20;101512.69;5049559;28;20099;-46
2022/03/11 05:32:03;;;;;;;16.70;8.32;;;;;;;6.88;46.62;101507.25;5074204;28;20045;-46
2022/03/11 05:34:31;;;;;;;14.77;8.23;;;;;;;6.90;46.84;101510.59;5053599;28;20052;-44
2022/03/11 05:36:58;;;;;;;12.95;8.32;;;;;;;6.94;46.20;101511.78;5054899;28;20041;-47
2022/03/11 05:39:26;;;;;;;13.43;8.38;;;;;;;6.94;46.41;101500.97;5061378;28;20039;-45
2022/03/11 05:41:54;;;;;;;15.05;8.43;;;;;;;6.92;46.62;101500.34;5075076;28;20052;-45
2022/03/11 05:44:22;;;;;;;15.55;8.82;;;;;;;6.92;46.57;101509.31;5057946;28;20037;-46
2022/03/11 05:46:55;;;;;;;13.98;8.98;;;;;;;6.91;46.62;101501.41;5054536;28;20103;-49
2022/03/11 05:49:22;;;;;;;16.65;8.63;;;;;;;6.83;46.74;101500.66;5038765;28;20036;-46
2022/03/11 05:51:51;;;;;;;13.95;8.77;;;;;;;6.79;47.68;101495.94;5054655;28;20047;-48
2022/03/11 05:54:19;;;;;;;15.00;9.57;;;;;;;6.78;47.13;101497.81;5054718;28;20045;-46
2022/03/11 05:56:54;;;;;;;13.52;9.40;;;;;;;6.79;47.77;101494.03;5054588;28;20052;-49
2022/03/11 05:59:22;;;;;;;15.70;9.32;;;;;;;6.85;47.38;101491.47;5038091;28;20140;-47
2022/03/11 06:01:49;;;;;;;16.45;9.25;;;;;;;6.88;47.28;101481.03;5055416;28;20127;-47
2022/03/11 06:04:17;;;;;;;14.00;8.75;;;;;;;6.88;47.08;101493.72;5071390;28;20048;-46
2022/03/11 06:06:45;;;;;;;14.23;8.68;;;;;;;6.82;47.73;101485.44;5074498;28;20044;-45
2022/03/11 06:09:12;;;;;;;14.32;9.20;;;;;;;6.85;47.62;101486.88;5060157;28;20487;-47
2022/03/11 06:11:40;;;;;;;15.73;9.32;;;;;;;6.90;47.46;101491.63;5054409;28;20080;-46
2022/03/11 06:14:08;;;;;;;16.55;9.48;;;;;;;6.96;47.48;101477.19;5054186;28;20045;-48
2022/03/11 06:16:36;;;;;;;16.27;9.27;;;;;;;7.00;47.51;101483.81;5054017;28;20045;-46
2022/03/11 06:19:04;;;;;;;19.05;10.20;;;;;;;7.02;47.19;101482.53;5042411;28;20049;-47
2022/03/11 06:21:31;;;;;;;16.60;8.88;;;;;;;7.00;48.05;101483.81;5053973;28;20124;-49
2022/03/11 06:23:59;;;;;;;16.15;8.73;;;;;;;7.03;48.06;101486.88;5054896;28;20521;-46
2022/03/11 06:26:27;;;;;;;18.33;9.52;;;;;;;7.07;47.06;101481.84;5055699;28;20041;-48
2022/03/11 06:28:54;;;;;;;12.95;8.90;;;;;;;7.07;47.75;101495.38;4721844;28;9999991;-47
2022/03/11 06:31:22;;;;;;;13.93;8.30;;;;;;;7.11;47.77;101485.72;5070365;28;20495;-48
2022/03/11 06:33:50;;;;;;;14.63;10.00;;;;;;;7.13;47.46;101493.63;5058081;28;20483;-47
2022/03/11 06:36:17;;;;;;;13.98;9.38;;;;;;;7.12;47.25;101484.69;5049580;28;20060;-46
2022/03/11 06:38:45;;;;;;;16.85;9.35;;;;;;;7.12;47.44;101486.53;5050586;28;20052;-46
2022/03/11 06:41:13;;;;;;;16.98;9.82;;;;;;;7.19;47.84;101487.28;5051276;28;20041;-49
2022/03/11 06:43:40;;;;;;;14.93;9.32;;;;;;;7.19;47.33;101490.00;5054534;28;20123;-45
2022/03/11 06:46:08;;;;;;;16.58;10.02;;;;;;;7.11;48.17;101485.72;5070279;28;20040;-47
2022/03/11 06:48:36;;;;;;;15.32;10.02;;;;;;;7.11;47.36;101496.56;5070339;28;20051;-48
2022/03/11 06:51:05;;;;;;;14.68;8.88;;;;;;;7.14;47.70;101493.38;5068238;28;20114;-45
2022/03/11 06:53:33;;;;;;;18.83;10.57;;;;;;;7.12;47.68;101492.81;5069250;28;20048;-48
2022/03/11 06:56:01;;;;;;;21.55;10.98;;;;;;;7.15;47.94;101491.53;5050291;28;20072;-48
2022/03/11 06:58:29;;;;;;;15.52;9.65;;;;;;;7.15;47.71;101497.78;5050013;28;20144;-45
2022/03/11 07:00:56;;;;;;;15.32;9.50;;;;;;;7.16;47.68;101493.16;5067929;28;20044;-45
2022/03/11 07:03:24;;;;;;;17.02;9.23;;;;;;;7.17;48.44;101484.81;5052354;28;20056;-46
2022/03/11 07:05:52;;;;;;;18.00;10.65;;;;;;;7.15;47.89;101481.50;5053899;28;20049;-46
2022/03/11 07:08:20;;;;;;;15.90;9.27;;;;;;;7.12;48.28;101486.53;5049890;28;20052;-45
2022/03/11 07:10:47;;;;;;;18.83;9.38;;;;;;;7.14;48.74;101473.59;5063234;28;20045;-42
2022/03/11 07:13:15;;;;;;;13.55;8.95;;;;;;;7.16;48.35;101475.03;5068731;28;20417;-43
2022/03/11 07:15:43;;;;;;;16.02;9.55;;;;;;;7.29;48.75;101473.19;5049999;28;20045;-46
2022/03/11 07:18:12;;;;;;;18.35;10.43;;;;;;;7.27;47.98;101475.31;5051396;28;20087;-44
2022/03/11 07:20:40;;;;;;;20.05;10.18;;;;;;;7.25;47.71;101476.34;5067643;28;20556;-46
2022/03/11 07:23:25;;;;;;;20.58;10.98;;;;;;;7.20;48.23;101489.78;5073121;28;20052;-47
2022/03/11 07:25:53;;;;;;;15.98;11.02;;;;;;;7.20;48.58;101484.34;5072952;28;20043;-46
2022/03/11 07:28:20;;;;;;;17.02;10.57;;;;;;;7.22;48.31;101476.81;5055335;28;20513;-47
2022/03/11 07:30:49;;;;;;;17.83;10.82;;;;;;;7.19;48.30;101482.72;5041455;28;20041;-45
2022/03/11 07:33:16;;;;;;;21.17;10.93;;;;;;;7.22;48.89;101484.13;5064881;28;20036;-45
2022/03/11 07:35:44;;;;;;;18.13;10.60;;;;;;;7.24;49.97;101479.31;5072824;28;20418;-44
2022/03/11 07:38:12;;;;;;;19.58;10.48;;;;;;;7.28;49.09;101485.09;5038262;28;20044;-46
2022/03/11 07:40:39;;;;;;;17.85;11.07;;;;;;;7.28;48.75;101488.63;5050778;28;20041;-42
2022/03/11 07:43:09;;;;;;;18.20;11.07;;;;;;;7.27;48.44;101483.44;5055494;28;20510;-49
2022/03/11 07:45:37;;;;;;;20.38;12.05;;;;;;;7.23;48.20;101478.47;5052145;28;20144;-48
2022/03/11 07:48:05;;;;;;;20.25;12.38;;;;;;;7.21;48.81;101477.88;5055373;28;20053;-45
2022/03/11 07:50:33;;;;;;;20.00;12.00;;;;;;;7.23;48.84;101472.22;5068782;28;20048;-47
2022/03/11 07:53:01;;;;;;;20.77;11.73;;;;;;;7.27;48.61;101473.44;5056687;28;20071;-47
2022/03/11 07:55:29;;;;;;;18.63;11.25;;;;;;;7.34;48.51;101471.47;5056892;28;20064;-46
2022/03/11 07:57:56;;;;;;;21.88;11.55;;;;;;;7.37;48.32;101476.41;5055476;28;20041;-45
2022/03/11 08:00:24;;;;;;;21.27;13.07;;;;;;;7.36;48.51;101466.63;5076277;28;20490;-46
2022/03/11 08:02:52;;;;;;;23.55;10.85;;;;;;;7.45;49.33;101464.41;5058589;28;20037;-45
2022/03/11 08:05:20;;;;;;;16.45;11.60;;;;;;;7.50;47.70;101461.81;5038338;28;20053;-48
2022/03/11 08:07:49;;;;;;;15.50;9.75;;;;;;;7.56;48.66;101470.94;5057038;28;20075;-46
2022/03/11 08:10:20;;;;;;;21.90;12.43;;;;;;;7.57;47.38;101465.25;5051175;28;20383;-46
2022/03/11 08:12:48;;;;;;;17.58;11.60;;;;;;;7.49;48.46;101467.50;5069201;28;20044;-46
2022/03/11 08:15:17;;;;;;;24.83;11.07;;;;;;;7.53;48.11;101471.38;5069471;28;20043;-45
2022/03/11 08:17:45;;;;;;;19.52;11.95;;;;;;;7.60;48.72;101469.38;5056268;28;20095;-46
2022/03/11 08:20:14;;;;;;;21.08;11.55;;;;;;;7.63;48.62;101455.38;5076047;28;20512;-50
2022/03/11 08:22:41;;;;;;;29.48;12.70;;;;;;;7.61;47.62;101444.75;5068079;28;20503;-47
2022/03/11 08:25:10;;;;;;;22.65;11.60;;;;;;;7.61;48.99;101452.91;5056234;28;20398;-48
2022/03/11 08:27:39;;;;;;;21.42;12.73;;;;;;;7.69;48.51;101443.59;5038423;28;20123;-46
2022/03/11 08:30:07;;;;;;;18.90;11.65;;;;;;;7.72;47.94;101450.44;5052086;28;20045;-48
2022/03/11 08:32:36;;;;;;;23.63;12.65;;;;;;;7.73;48.87;101452.09;5057703;28;20071;-48
2022/03/11 08:35:04;;;;;;;18.90;11.93;;;;;;;7.71;48.31;101446.06;5054428;28;20048;-46
2022/03/11 08:37:37;;;;;;;23.02;12.57;;;;;;;7.72;47.71;101431.44;5055827;28;20136;-45
2022/03/11 08:40:06;;;;;;;20.20;13.38;;;;;;;7.68;48.51;101431.91;5038238;28;20055;-47
2022/03/11 08:42:35;;;;;;;23.33;12.40;;;;;;;7.67;48.08;101433.00;5056366;28;20492;-52
2022/03/11 08:45:04;;;;;;;20.13;12.93;;;;;;;7.67;48.19;101433.00;5074673;28;20041;-46
2022/03/11 08:47:32;;;;;;;24.77;12.85;;;;;;;7.68;48.52;101428.38;5076144;28;20060;-47
2022/03/11 08:50:00;;;;;;;23.63;13.90;;;;;;;7.69;48.53;101425.41;5057723;28;20090;-49
2022/03/11 08:52:28;;;;;;;21.48;11.65;;;;;;;7.77;48.23;101420.72;5075788;28;20155;-49
2022/03/11 08:54:56;;;;;;;25.13;12.88;;;;;;;7.82;48.51;101426.28;5075835;28;20079;-52
2022/03/11 08:57:24;;;;;;;23.30;13.60;;;;;;;7.90;48.42;101428.63;5073372;28;20045;-48
2022/03/11 08:59:54;;;;;;;21.30;12.68;;;;;;;7.86;48.78;101436.44;5036870;28;20128;-46
2022/03/11 09:02:22;;;;;;;21.85;12.30;;;;;;;7.94;48.87;101424.41;5055632;28;20197;-49
2022/03/11 09:04:51;;;;;;;20.80;11.57;;;;;;;8.03;48.67;101417.56;5055431;28;20089;-48
2022/03/11 09:07:18;;;;;;;24.15;12.27;;;;;;;8.05;48.57;101420.84;5055433;28;20053;-48
2022/03/11 09:09:46;;;;;;;23.13;12.98;;;;;;;8.07;48.31;101423.34;5053180;28;20376;-48
2022/03/11 09:12:14;;;;;;;23.83;13.20;;;;;;;8.11;49.28;101411.78;5055263;28;20125;-45
2022/03/11 09:14:42;;;;;;;24.05;13.15;;;;;;;8.11;48.37;101414.47;5055568;28;20045;-47
2022/03/11 09:17:10;;;;;;;23.77;13.20;;;;;;;8.15;48.84;101419.44;5055304;28;20041;-47
2022/03/11 09:19:37;;;;;;;28.75;13.68;;;;;;;8.22;48.92;101415.53;5047912;28;20042;-49
2022/03/11 09:22:27;;;;;;;22.38;13.30;;;;;;;8.18;48.10;101402.66;5037175;28;20445;-48
2022/03/11 09:24:55;;;;;;;22.67;13.35;;;;;;;8.21;48.95;101408.44;5055438;28;20523;-44
2022/03/11 09:27:23;;;;;;;21.02;13.50;;;;;;;8.23;48.53;101409.03;5054951;28;20059;-48
2022/03/11 09:29:52;;;;;;;24.75;13.60;;;;;;;8.32;48.89;101409.50;5055062;28;20053;-49
2022/03/11 09:32:20;;;;;;;25.50;13.57;;;;;;;8.35;48.94;101405.50;5054880;28;20051;-47
2022/03/11 09:34:49;;;;;;;24.10;13.13;;;;;;;8.38;49.04;101403.13;5055135;28;20076;-48
2022/03/11 09:37:16;;;;;;;25.15;12.52;;;;;;;8.41;48.80;101402.66;5059795;28;20040;-45
2022/03/11 09:39:44;;;;;;;20.75;13.52;;;;;;;8.48;49.06;101389.78;5074890;28;20495;-46
2022/03/11 09:42:12;;;;;;;26.77;13.35;;;;;;;8.53;50.27;101389.88;5057402;28;20048;-46
2022/03/11 09:44:40;;;;;;;23.33;13.45;;;;;;;8.61;48.70;101401.44;5074818;28;20037;-45
2022/03/11 09:47:08;;;;;;;23.58;12.80;;;;;;;8.62;48.85;101395.78;5056037;28;20102;-46
2022/03/11 09:49:37;;;;;;;20.83;12.60;;;;;;;8.60;48.35;101397.06;5056422;28;20044;-46
2022/03/11 09:52:05;;;;;;;23.38;13.50;;;;;;;8.66;49.24;101393.38;5057166;28;20526;-49
2022/03/11 09:54:34;;;;;;;22.52;12.73;;;;;;;8.68;49.15;101386.66;5057042;28;20127;-48
2022/03/11 09:57:02;;;;;;;20.38;12.68;;;;;;;8.69;48.52;101382.88;5052942;28;20141;-49
2022/03/11 09:59:29;;;;;;;20.70;12.95;;;;;;;8.74;48.77;101379.44;5036833;28;20115;-48
2022/03/11 10:02:18;;;;;;;23.70;10.48;;;;;;;8.84;49.37;101374.19;5059566;28;20033;-47
2022/03/11 10:04:48;;;;;;;21.10;13.27;;;;;;;8.81;48.62;101368.44;5069623;28;20052;-45
2022/03/11 10:07:35;;;;;;;21.48;13.63;;;;;;;8.84;48.86;101367.94;5071234;28;20041;-46
2022/03/11 10:10:13;;;;;;;22.63;14.05;;;;;;;8.85;48.92;101359.56;5074375;28;20460;-47
2022/03/11 10:13:00;;;;;;;24.92;13.95;;;;;;;8.92;48.94;101365.66;5073760;28;20055;-48
2022/03/11 10:15:29;;;;;;;26.55;13.20;;;;;;;8.96;49.17;101350.50;5074026;28;20486;-47
2022/03/11 10:18:02;;;;;;;23.15;13.30;;;;;;;9.03;49.21;101349.53;5059152;28;20048;-47
2022/03/11 10:20:31;;;;;;;24.33;14.52;;;;;;;9.09;49.13;101348.53;5036094;28;20581;-46
2022/03/11 10:22:59;;;;;;;23.40;12.82;;;;;;;9.21;49.27;101346.56;5036867;28;20091;-49
2022/03/11 10:25:28;;;;;;;27.55;14.23;;;;;;;9.25;48.29;101346.91;5053868;28;20430;-47
2022/03/11 10:28:07;;;;;;;20.30;11.18;;;;;;;9.33;49.82;101350.06;5055141;28;20057;-47
2022/03/11 10:30:43;;;;;;;17.60;10.70;;;;;;;9.33;49.41;101346.50;5054126;28;20076;-47
2022/03/11 10:33:13;;;;;;;21.35;13.60;;;;;;;9.32;48.50;101337.53;5035998;28;20037;-46
2022/03/11 10:35:45;;;;;;;25.05;14.02;;;;;;;9.30;48.81;101342.38;5036420;28;20041;-46
2022/03/11 10:38:18;;;;;;;18.23;10.77;;;;;;;9.36;49.40;101337.88;5054749;28;20105;-46
2022/03/11 10:40:54;;;;;;;23.48;13.23;;;;;;;9.36;49.00;101341.41;5048105;28;20448;-45
2022/03/11 10:43:29;;;;;;;20.73;11.18;;;;;;;9.39;49.36;101338.19;5053619;28;20041;-47
2022/03/11 10:46:03;;;;;;;35.90;13.57;;;;;;;9.42;49.56;101341.47;5035962;28;20049;-46
2022/03/11 10:48:51;;;;;;;23.02;12.73;;;;;;;9.38;48.65;101325.66;5044431;28;20048;-44
2022/03/11 10:51:20;;;;;;;20.60;12.80;;;;;;;9.37;48.76;101326.72;5073850;28;20041;-48
2022/03/11 10:53:49;;;;;;;29.08;12.60;;;;;;;9.52;48.96;101317.16;5073452;28;20542;-45
2022/03/11 10:56:35;;;;;;;29.55;14.07;;;;;;;9.63;48.53;101316.25;5071400;28;20559;-48
2022/03/11 10:59:11;;;;;;;24.55;13.63;;;;;;;9.66;47.82;101313.00;5036361;28;20132;-45
2022/03/11 11:01:43;;;;;;;28.90;13.95;;;;;;;9.70;48.61;101310.63;5035769;28;20075;-48
2022/03/11 11:04:17;;;;;;;25.80;14.75;;;;;;;9.84;48.17;101311.94;5035757;28;20045;-46
2022/03/11 11:06:46;;;;;;;25.08;13.43;;;;;;;9.89;48.83;101316.63;5036752;28;20163;-44
2022/03/11 11:09:17;;;;;;;25.80;13.43;;;;;;;9.88;48.92;101312.22;5035448;28;20480;-46
2022/03/11 11:11:45;;;;;;;24.95;10.93;;;;;;;9.89;48.19;101305.72;5036173;28;20052;-47
2022/03/11 11:14:13;;;;;;;26.80;13.65;;;;;;;9.95;48.54;101302.00;5053023;28;20041;-47
2022/03/11 11:16:42;;;;;;;28.90;14.48;;;;;;;9.99;48.02;101303.13;5059626;28;20063;-44
2022/03/11 11:19:13;;;;;;;24.52;13.90;;;;;;;10.05;47.93;101309.47;5073032;28;20095;-48
2022/03/11 11:21:46;;;;;;;29.50;14.90;;;;;;;10.07;47.68;101299.97;5072941;28;20047;-48
2022/03/11 11:24:19;;;;;;;28.02;14.45;;;;;;;10.09;47.31;101289.66;5056028;28;20391;-50
2022/03/11 11:26:57;;;;;;;24.35;11.85;;;;;;;10.14;47.17;101284.25;5063402;28;20045;-50
2022/03/11 11:29:29;;;;;;;28.95;15.27;;;;;;;10.20;47.08;101283.25;5055462;28;20035;-43
2022/03/11 11:32:01;;;;;;;27.85;13.85;;;;;;;10.22;46.97;101280.25;5069644;28;20051;-46